createdAt,value
2018-12-07T00:04:39.072Z,96026.00
2018-12-07T00:10:07.266Z,96021.00
2018-12-07T00:15:35.491Z,96009.00
2018-12-07T00:21:03.570Z,96007.00
2018-12-07T00:26:31.771Z,96005.00
2018-12-07T00:31:59.854Z,96003.00
2018-12-07T00:37:27.932Z,96000.00
2018-12-07T00:42:56.006Z,96000.00
2018-12-07T00:48:24.086Z,96002.00
2018-12-07T00:53:52.163Z,95999.00
2018-12-07T00:59:20.487Z,95986.00
2018-12-07T01:04:48.544Z,95984.00
2018-12-07T01:10:16.791Z,95986.00
2018-12-07T01:15:44.883Z,95977.00
2018-12-07T01:21:12.971Z,95972.00
2018-12-07T01:26:41.050Z,95972.00
2018-12-07T01:32:10.087Z,95977.00
2018-12-07T01:37:38.307Z,95977.00
2018-12-07T01:43:06.568Z,95976.00
2018-12-07T01:48:34.816Z,95980.00
2018-12-07T01:54:05.153Z,95974.00
2018-12-07T01:59:33.403Z,95964.00
2018-12-07T02:05:01.676Z,95958.00
2018-12-07T02:10:29.953Z,95961.00
2018-12-07T02:15:58.023Z,95955.00
2018-12-07T02:21:27.337Z,95957.00
2018-12-07T02:26:55.586Z,95948.00
2018-12-07T02:32:23.791Z,95941.00
2018-12-07T02:37:52.048Z,95931.00
2018-12-07T02:43:20.294Z,95920.00
2018-12-07T02:48:48.554Z,95915.00
2018-12-07T02:54:16.805Z,95910.00
2018-12-07T02:59:45.028Z,95906.00
2018-12-07T03:05:13.269Z,95899.00
2018-12-07T03:10:41.591Z,95900.00
2018-12-07T03:16:09.827Z,95892.00
2018-12-07T03:21:38.086Z,95887.00
2018-12-07T03:27:06.154Z,95883.00
2018-12-07T03:32:34.364Z,95891.00
2018-12-07T03:38:02.628Z,95864.00
2018-12-07T03:43:30.901Z,95872.00
2018-12-07T03:48:59.135Z,95858.00
2018-12-07T03:54:27.436Z,95856.00
2018-12-07T03:59:55.728Z,95843.00
2018-12-07T04:05:23.801Z,95850.00
2018-12-07T04:10:51.895Z,95846.00
2018-12-07T04:16:19.981Z,95848.00
2018-12-07T04:21:48.061Z,95839.00
2018-12-07T04:27:16.147Z,95843.00
2018-12-07T04:32:44.226Z,95838.00
2018-12-07T04:38:12.308Z,95838.00
2018-12-07T04:43:40.575Z,95832.00
2018-12-07T04:49:08.811Z,95835.00
2018-12-07T04:54:37.114Z,95823.00
2018-12-07T05:00:07.249Z,95814.00
2018-12-07T05:05:36.275Z,95808.00
2018-12-07T05:11:04.438Z,95803.00
2018-12-07T05:16:32.511Z,95788.00
2018-12-07T05:22:00.753Z,95789.00
2018-12-07T05:27:28.836Z,95791.00
2018-12-07T05:32:57.003Z,95786.00
2018-12-07T05:38:25.076Z,95780.00
2018-12-07T05:43:56.286Z,95784.00
2018-12-07T05:49:24.558Z,95782.00
2018-12-07T05:54:52.725Z,95781.00
2018-12-07T06:00:20.866Z,95786.00
2018-12-07T06:05:49.134Z,95782.00
2018-12-07T06:11:17.298Z,95784.00
2018-12-07T06:16:45.384Z,95782.00
2018-12-07T06:22:13.459Z,95775.00
2018-12-07T06:27:41.543Z,95776.00
2018-12-07T06:33:09.632Z,95780.00
2018-12-07T06:38:37.700Z,95774.00
2018-12-07T06:44:05.791Z,95769.00
2018-12-07T06:49:35.897Z,95772.00
2018-12-07T06:55:04.707Z,95764.00
2018-12-07T07:00:32.878Z,95744.00
2018-12-07T07:06:00.967Z,95752.00
2018-12-07T07:11:29.040Z,95740.00
2018-12-07T07:16:57.120Z,95742.00
2018-12-07T07:22:25.291Z,95740.00
2018-12-07T07:27:53.371Z,95725.00
2018-12-07T07:33:21.451Z,95717.00
2018-12-07T07:38:49.626Z,95715.00
2018-12-07T07:44:17.783Z,95716.00
2018-12-07T07:49:45.855Z,95710.00
2018-12-07T07:55:14.045Z,95704.00
2018-12-07T08:00:42.140Z,95696.00
2018-12-07T08:06:10.307Z,95695.00
2018-12-07T08:11:38.489Z,95678.00
2018-12-07T08:17:06.565Z,95683.00
2018-12-07T08:22:34.702Z,95670.00
2018-12-07T08:28:02.788Z,95668.00
2018-12-07T08:33:30.888Z,95661.00
2018-12-07T08:38:58.967Z,95664.00
2018-12-07T08:44:27.044Z,95655.00
2018-12-07T08:49:56.924Z,95650.00
2018-12-07T08:55:25.014Z,95639.00
2018-12-07T09:00:53.091Z,95629.00
2018-12-07T09:06:21.176Z,95631.00
2018-12-07T09:11:49.263Z,95619.00
2018-12-07T09:17:17.357Z,95624.00
2018-12-07T09:22:45.499Z,95609.00
2018-12-07T09:28:13.591Z,95599.00
2018-12-07T09:33:41.664Z,95587.00
2018-12-07T09:39:09.810Z,95576.00
2018-12-07T09:44:37.886Z,95564.00
2018-12-07T09:50:06.762Z,95559.00
2018-12-07T09:55:34.842Z,95544.00
2018-12-07T10:01:02.998Z,95539.00
2018-12-07T10:06:31.087Z,95537.00
2018-12-07T10:11:59.191Z,95518.00
2018-12-07T10:17:27.264Z,95506.00
2018-12-07T10:22:56.280Z,95492.00
2018-12-07T10:28:24.371Z,95496.00
2018-12-07T10:33:52.835Z,95487.00
2018-12-07T10:39:21.895Z,95479.00
2018-12-07T10:44:50.084Z,95463.00
2018-12-07T10:50:18.195Z,95446.00
2018-12-07T10:55:46.284Z,95445.00
2018-12-07T11:07:22.330Z,95411.00
2018-12-07T11:12:56.084Z,95402.00
2018-12-07T11:18:29.763Z,95402.00
2018-12-07T11:36:13.139Z,95365.00
2018-12-07T11:41:41.233Z,95360.00
2018-12-07T11:47:09.309Z,95346.00
2018-12-07T11:52:37.531Z,95334.00
2018-12-07T11:58:05.725Z,95317.00
2018-12-07T12:03:33.811Z,95303.00
2018-12-07T12:09:01.901Z,95293.00
2018-12-07T12:14:31.890Z,95282.00
2018-12-07T12:20:00.895Z,95264.00
2018-12-07T12:25:29.095Z,95253.00
2018-12-07T12:31:16.304Z,95231.00
2018-12-07T12:36:44.469Z,95214.00
2018-12-07T12:42:12.568Z,95209.00
2018-12-07T12:47:40.654Z,95191.00
2018-12-07T12:53:10.682Z,95171.00
2018-12-07T12:58:38.760Z,95154.00
2018-12-07T13:04:06.850Z,95146.00
2018-12-07T13:09:34.929Z,95140.00
2018-12-07T13:15:03.060Z,95146.00
2018-12-07T13:20:32.086Z,95137.00
2018-12-07T13:26:06.860Z,95113.00
2018-12-07T13:31:35.023Z,95112.00
2018-12-07T13:37:03.230Z,95089.00
2018-12-07T13:42:31.526Z,95088.00
2018-12-07T13:47:59.860Z,95092.00
2018-12-07T13:53:28.409Z,95092.00
2018-12-07T13:58:56.728Z,95085.00
2018-12-07T14:04:25.057Z,95077.00
2018-12-07T14:09:54.532Z,95079.00
2018-12-07T14:15:22.766Z,95081.00
2018-12-07T14:20:52.744Z,95082.00
2018-12-07T14:26:21.636Z,95063.00
2018-12-07T14:32:15.531Z,95078.00
2018-12-07T14:37:50.494Z,95063.00
2018-12-07T14:49:25.756Z,95061.00
2018-12-07T14:54:54.178Z,95049.00
2018-12-07T15:00:22.470Z,95032.00
2018-12-07T15:05:50.651Z,95022.00
2018-12-07T15:11:19.093Z,95040.00
2018-12-07T15:16:47.405Z,95028.00
2018-12-07T15:22:15.875Z,95019.00
2018-12-07T15:27:45.230Z,95015.00
2018-12-07T15:33:13.612Z,94991.00
2018-12-07T15:38:41.909Z,94990.00
2018-12-07T15:44:10.240Z,94981.00
2018-12-07T15:49:40.353Z,94976.00
2018-12-07T15:55:08.670Z,94959.00
2018-12-07T16:00:39.072Z,94931.00
2018-12-07T16:06:07.557Z,94919.00
2018-12-07T16:11:35.861Z,94911.00
2018-12-07T16:17:04.167Z,94894.00
2018-12-07T16:22:32.311Z,94879.00
2018-12-07T16:28:00.725Z,94859.00
2018-12-07T16:33:29.161Z,94850.00
2018-12-07T16:39:01.553Z,94861.00
2018-12-07T16:44:31.596Z,94841.00
2018-12-07T16:49:59.818Z,94826.00
2018-12-07T16:55:28.166Z,94819.00
2018-12-07T17:00:56.509Z,94814.00
2018-12-07T17:06:24.689Z,94799.00
2018-12-07T17:11:53.085Z,94810.00
2018-12-07T17:17:21.318Z,94802.00
2018-12-07T17:22:49.885Z,94790.00
2018-12-07T17:28:18.335Z,94781.00
2018-12-07T17:33:46.696Z,94792.00
2018-12-07T17:39:15.067Z,94782.00
2018-12-07T17:44:43.590Z,94779.00
2018-12-07T17:50:11.927Z,94779.00
2018-12-07T17:55:40.237Z,94775.00
2018-12-07T18:01:08.453Z,94773.00
2018-12-07T18:06:36.552Z,94764.00
2018-12-07T18:12:04.833Z,94772.00
2018-12-07T18:17:33.411Z,94794.00
2018-12-07T18:23:01.880Z,94780.00
2018-12-07T18:28:30.144Z,94785.00
2018-12-07T18:33:58.414Z,94772.00
2018-12-07T18:39:27.409Z,94781.00
2018-12-07T18:44:56.510Z,94783.00
2018-12-07T18:50:28.342Z,94784.00
2018-12-07T18:55:56.949Z,94787.00
2018-12-07T19:13:45.912Z,94794.00
2018-12-07T19:19:14.186Z,94806.00
2018-12-07T19:24:42.636Z,94792.00
2018-12-07T19:30:14.582Z,94800.00
2018-12-07T19:35:41.188Z,94801.00
2018-12-07T19:41:09.570Z,94814.00
2018-12-07T19:46:38.890Z,94816.00
2018-12-07T19:52:07.573Z,94823.00
2018-12-07T19:57:35.806Z,94826.00
2018-12-07T20:03:04.311Z,94824.00
2018-12-07T20:08:32.748Z,94825.00
2018-12-07T20:14:00.940Z,94811.00
2018-12-07T20:19:29.608Z,94790.00
2018-12-07T20:24:58.470Z,94791.00
2018-12-07T20:30:26.569Z,94800.00
2018-12-07T20:35:55.484Z,94809.00
2018-12-07T20:41:26.047Z,94812.00
2018-12-07T20:46:55.807Z,94810.00
2018-12-07T20:52:24.132Z,94801.00
2018-12-07T20:57:52.496Z,94808.00
2018-12-07T21:03:40.842Z,94797.00
2018-12-07T21:09:27.109Z,94786.00
2018-12-07T21:14:55.568Z,94769.00
2018-12-07T21:20:24.171Z,94761.00
2018-12-07T21:25:52.491Z,94754.00
2018-12-07T21:31:20.682Z,94742.00
2018-12-07T21:36:49.016Z,94715.00
2018-12-07T21:42:18.286Z,94716.00
2018-12-07T21:48:21.135Z,94711.00
2018-12-07T21:53:49.260Z,94694.00
2018-12-07T21:59:17.992Z,94701.00
2018-12-07T22:04:46.257Z,94719.00
2018-12-07T22:10:14.491Z,94697.00
2018-12-07T22:15:42.885Z,94696.00
2018-12-07T22:21:11.230Z,94678.00
2018-12-07T22:26:39.515Z,94701.00
2018-12-07T22:32:07.888Z,94696.00
2018-12-07T22:37:36.537Z,94685.00
2018-12-07T22:43:05.537Z,94678.00
2018-12-07T22:48:33.994Z,94704.00
2018-12-07T22:54:02.154Z,94712.00
2018-12-07T22:59:30.239Z,94713.00
2018-12-07T23:04:58.537Z,94734.00
2018-12-07T23:10:26.698Z,94735.00
2018-12-07T23:15:54.861Z,94779.00
2018-12-07T23:21:23.160Z,94779.00
2018-12-07T23:26:51.330Z,94788.00
2018-12-07T23:32:19.418Z,94783.00
2018-12-07T23:37:47.498Z,94819.00
2018-12-07T23:43:15.665Z,94795.00
2018-12-07T23:48:43.760Z,94815.00
2018-12-07T23:54:11.881Z,94853.00
2018-12-07T23:59:40.066Z,94865.00
